地図

経路データ

SID SEASON NUMBER BASIN SUBBASIN NAME ISO_TIME NATURE LAT LON WMO_WIND WMO_PRES WMO_AGENCY TRACK_TYPE DIST2LAND LANDFALL IFLAG USA_AGENCY USA_ATCF_ID USA_LAT USA_LON USA_RECORD USA_STATUS USA_WIND USA_PRES USA_SSHS USA_R34_NE USA_R34_SE USA_R34_SW USA_R34_NW USA_R50_NE USA_R50_SE USA_R50_SW USA_R50_NW USA_R64_NE USA_R64_SE USA_R64_SW USA_R64_NW USA_POCI USA_ROCI USA_RMW USA_EYE TOKYO_LAT TOKYO_LON TOKYO_GRADE TOKYO_WIND TOKYO_PRES TOKYO_R50_DIR TOKYO_R50_LONG TOKYO_R50_SHORT TOKYO_R30_DIR TOKYO_R30_LONG TOKYO_R30_SHORT TOKYO_LAND CMA_LAT CMA_LON CMA_CAT CMA_WIND CMA_PRES HKO_LAT HKO_LON HKO_CAT HKO_WIND HKO_PRES NEWDELHI_LAT NEWDELHI_LON NEWDELHI_GRADE NEWDELHI_WIND NEWDELHI_PRES NEWDELHI_CI NEWDELHI_DP NEWDELHI_POCI REUNION_LAT REUNION_LON REUNION_TYPE REUNION_WIND REUNION_PRES REUNION_TNUM REUNION_CI REUNION_RMW REUNION_R34_NE REUNION_R34_SE REUNION_R34_SW REUNION_R34_NW REUNION_R50_NE REUNION_R50_SE REUNION_R50_SW REUNION_R50_NW REUNION_R64_NE REUNION_R64_SE REUNION_R64_SW REUNION_R64_NW BOM_LAT BOM_LON BOM_TYPE BOM_WIND BOM_PRES BOM_TNUM BOM_CI BOM_RMW BOM_R34_NE BOM_R34_SE BOM_R34_SW BOM_R34_NW BOM_R50_NE BOM_R50_SE BOM_R50_SW BOM_R50_NW BOM_R64_NE BOM_R64_SE BOM_R64_SW BOM_R64_NW BOM_ROCI BOM_POCI BOM_EYE BOM_POS_METHOD BOM_PRES_METHOD NADI_LAT NADI_LON NADI_CAT NADI_WIND NADI_PRES WELLINGTON_LAT WELLINGTON_LON WELLINGTON_WIND WELLINGTON_PRES DS824_LAT DS824_LON DS824_STAGE DS824_WIND DS824_PRES TD9636_LAT TD9636_LON TD9636_STAGE TD9636_WIND TD9636_PRES TD9635_LAT TD9635_LON TD9635_WIND TD9635_PRES TD9635_ROCI NEUMANN_LAT NEUMANN_LON NEUMANN_CLASS NEUMANN_WIND NEUMANN_PRES MLC_LAT MLC_LON MLC_CLASS MLC_WIND MLC_PRES USA_GUST BOM_GUST BOM_GUST_PER REUNION_GUST REUNION_GUST_PER USA_SEAHGT USA_SEARAD_NE USA_SEARAD_SE USA_SEARAD_SW USA_SEARAD_NW STORM_SPEED STORM_DIR
1910136N14134 1910 19 WP MM NOT_NAMED 1910-05-15 16:00:00 NR 14.3000 133.600 main 908 861 __________O___ -1 14.3000 133.600 7 24 313
1910136N14134 1910 19 WP MM NOT_NAMED 1910-05-15 18:00:00 NR 14.8574 132.990 main 865 807 __________P___ -1 14.8574 132.990 7 24 314
1910136N14134 1910 19 WP MM NOT_NAMED 1910-05-15 21:00:00 NR 15.6768 132.100 main 813 782 __________P___ -1 15.6768 132.100 7 23 314
1910136N14134 1910 19 WP MM NOT_NAMED 1910-05-16 00:00:00 NR 16.4568 131.285 main 788 754 __________P___ -1 16.4568 131.285 7 21 316
1910136N14134 1910 19 WP MM NOT_NAMED 1910-05-16 03:00:00 NR 17.1768 130.594 main 760 752 __________P___ -1 17.1768 130.594 7 19 318
1910136N14134 1910 19 WP MM NOT_NAMED 1910-05-16 04:00:00 NR 17.4000 130.400 main 752 743 __________O___ -1 17.4000 130.400 7 16 322
1910136N14134 1910 19 WP MM NOT_NAMED 1910-05-16 06:00:00 NR 17.8196 130.075 main 749 745 __________P___ -1 17.8196 130.075 7 14 328
1910136N14134 1910 19 WP MM NOT_NAMED 1910-05-16 09:00:00 NR 18.3997 129.734 main 757 757 __________P___ -1 18.3997 129.734 7 12 336
1910136N14134 1910 19 WP MM NOT_NAMED 1910-05-16 12:00:00 NR 18.9512 129.547 main 761 761 __________P___ -1 18.9512 129.547 7 11 348
1910136N14134 1910 19 WP MM NOT_NAMED 1910-05-16 15:00:00 NR 19.5076 129.493 main 767 767 __________P___ -1 19.5076 129.493 7 11 357
1910136N14134 1910 19 WP MM NOT_NAMED 1910-05-16 16:00:00 NR 19.7000 129.500 main 770 770 __________O___ -1 19.7000 129.500 7 13 2
1910136N14134 1910 19 WP MM NOT_NAMED 1910-05-16 18:00:00 NR 20.1290 129.501 main 779 781 __________P___ -1 20.1290 129.501 7 13 5
1910136N14134 1910 19 WP MM NOT_NAMED 1910-05-16 21:00:00 NR 20.7919 129.604 main 810 810 __________P___ -1 20.7919 129.604 7 14 12
1910136N14134 1910 19 WP MM NOT_NAMED 1910-05-17 00:00:00 NR 21.4560 129.808 main 856 856 __________P___ -1 21.4560 129.808 7 14 19
1910136N14134 1910 19 WP MM NOT_NAMED 1910-05-17 03:00:00 NR 22.0962 130.092 main 878 875 __________P___ -1 22.0962 130.092 7 14 23
1910136N14134 1910 19 WP MM NOT_NAMED 1910-05-17 04:00:00 NR 22.3000 130.200 main 881 878 __________O___ -1 22.3000 130.200 7 13 26
1910136N14134 1910 19 WP MM NOT_NAMED 1910-05-17 06:00:00 NR 22.6890 130.405 main 888 871 __________P___ -1 22.6890 130.405 7 13 29
1910136N14134 1910 19 WP MM NOT_NAMED 1910-05-17 09:00:00 NR 23.2411 130.769 main 871 805 __________P___ -1 23.2411 130.769 7 13 34
1910136N14134 1910 19 WP MM NOT_NAMED 1910-05-17 12:00:00 NR 23.7585 131.186 main 805 764 __________P___ -1 23.7585 131.186 7 13 39
1910136N14134 1910 19 WP MM NOT_NAMED 1910-05-17 15:00:00 NR 24.2444 131.642 main 764 744 __________P___ -1 24.2444 131.642 7 13 41
1910136N14134 1910 19 WP MM NOT_NAMED 1910-05-17 16:00:00 NR 24.4000 131.800 main 744 714 __________O___ -1 24.4000 131.800 7 12 42
1910136N14134 1910 19 WP MM NOT_NAMED 1910-05-17 18:00:00 NR 24.7082 132.093 main 716 681 __________P___ -1 24.7082 132.093 7 12 43
1910136N14134 1910 19 WP MM NOT_NAMED 1910-05-17 21:00:00 NR 25.1456 132.557 main 684 646 __________P___ -1 25.1456 132.557 7 12 46
1910136N14134 1910 19 WP MM NOT_NAMED 1910-05-18 00:00:00 NR 25.5617 133.059 main 646 625 __________P___ -1 25.5617 133.059 7 13 49
1910136N14134 1910 19 WP MM NOT_NAMED 1910-05-18 03:00:00 NR 25.9661 133.606 main 625 620 __________P___ -1 25.9661 133.606 7 13 51
1910136N14134 1910 19 WP MM NOT_NAMED 1910-05-18 04:00:00 NR 26.1000 133.800 main 624 610 __________O___ -1 26.1000 133.800 7 13 50
1910136N14134 1910 19 WP MM NOT_NAMED 1910-05-18 06:00:00 NR 26.3810 134.164 main 616 604 __________P___ -1 26.3810 134.164 7 13 51
1910136N14134 1910 19 WP MM NOT_NAMED 1910-05-18 09:00:00 NR 26.7969 134.753 main 610 601 __________P___ -1 26.7969 134.753 7 14 54
1910136N14134 1910 19 WP MM NOT_NAMED 1910-05-18 12:00:00 NR 27.1991 135.422 main 608 605 __________P___ -1 27.1991 135.422 7 15 59
1910136N14134 1910 19 WP MM NOT_NAMED 1910-05-18 15:00:00 NR 27.5796 136.207 main 628 635 __________P___ -1 27.5796 136.207 7 16 62
1910136N14134 1910 19 WP MM NOT_NAMED 1910-05-18 16:00:00 NR 27.7000 136.500 main 639 622 __________O___ -1 27.7000 136.500 3 18 67
1910136N14134 1910 19 WP MM NOT_NAMED 1910-05-18 18:00:00 NR 27.9298 137.137 main 626 613 __________P___ -1 27.9298 137.137 3 19 70
1910136N14134 1910 19 WP MM NOT_NAMED 1910-05-18 21:00:00 NR 28.2489 138.203 main 623 616 __________P___ -1 28.2489 138.203 3 21 73
1910136N14134 1910 19 WP MM NOT_NAMED 1910-05-19 00:00:00 NR 28.5414 139.366 main 645 635 __________P___ -1 28.5414 139.366 3 22 75
1910136N14134 1910 19 WP MM NOT_NAMED 1910-05-19 03:00:00 NR 28.8130 140.587 main 668 663 __________P___ -1 28.8130 140.587 3 22 76
1910136N14134 1910 19 WP MM NOT_NAMED 1910-05-19 04:00:00 NR 28.9000 141.000 main 668 __________O___ -1 28.9000 141.000 4 22 77

デジタル台風データ・検索

IBTrACS Databaseについて

本データベースは、米国NOAAが公開する1842年以降の世界の熱帯低気圧のベストトラックデータアーカイブInternational Best Track Archive for Climate Stewardship (IBTrACS)を、ウェブで閲覧しやすい形式に変換したものです。

最終更新日:2021-12-06